sensor_id;sensor_type;location;lat;lon;timestamp;P1;durP1;ratioP1;P2;durP2;ratioP2
11524;SDS011;5819;49.648;8.330;2023-11-21T00:00:59;5.63;;;2.25;;
11524;SDS011;5819;49.648;8.330;2023-11-21T00:03:30;5.00;;;1.83;;
11524;SDS011;5819;49.648;8.330;2023-11-21T00:05:58;6.32;;;2.00;;
11524;SDS011;5819;49.648;8.330;2023-11-21T00:08:27;7.25;;;2.05;;
11524;SDS011;5819;49.648;8.330;2023-11-21T00:10:56;5.70;;;1.65;;
11524;SDS011;5819;49.648;8.330;2023-11-21T00:13:28;5.45;;;1.88;;
11524;SDS011;5819;49.648;8.330;2023-11-21T00:15:56;5.20;;;1.83;;
11524;SDS011;5819;49.648;8.330;2023-11-21T00:18:23;6.88;;;2.30;;
11524;SDS011;5819;49.648;8.330;2023-11-21T00:20:51;5.28;;;1.85;;
11524;SDS011;5819;49.648;8.330;2023-11-21T00:23:19;7.32;;;2.28;;
11524;SDS011;5819;49.648;8.330;2023-11-21T00:25:47;7.35;;;1.90;;
11524;SDS011;5819;49.648;8.330;2023-11-21T00:28:15;4.03;;;1.92;;
11524;SDS011;5819;49.648;8.330;2023-11-21T00:30:44;4.35;;;2.00;;
11524;SDS011;5819;49.648;8.330;2023-11-21T00:33:13;5.57;;;2.20;;
11524;SDS011;5819;49.648;8.330;2023-11-21T00:35:41;5.72;;;1.73;;
11524;SDS011;5819;49.648;8.330;2023-11-21T00:38:09;5.15;;;1.77;;
11524;SDS011;5819;49.648;8.330;2023-11-21T00:40:38;5.68;;;1.95;;
11524;SDS011;5819;49.648;8.330;2023-11-21T00:43:05;7.03;;;2.17;;
11524;SDS011;5819;49.648;8.330;2023-11-21T00:45:33;5.57;;;1.90;;
11524;SDS011;5819;49.648;8.330;2023-11-21T00:48:04;6.40;;;1.83;;
11524;SDS011;5819;49.648;8.330;2023-11-21T00:50:32;5.70;;;2.05;;
11524;SDS011;5819;49.648;8.330;2023-11-21T00:53:00;5.18;;;2.22;;
11524;SDS011;5819;49.648;8.330;2023-11-21T00:55:29;11.60;;;2.72;;
11524;SDS011;5819;49.648;8.330;2023-11-21T00:57:58;6.50;;;1.70;;
11524;SDS011;5819;49.648;8.330;2023-11-21T01:00:26;6.45;;;2.00;;
11524;SDS011;5819;49.648;8.330;2023-11-21T01:02:54;4.93;;;1.75;;
11524;SDS011;5819;49.648;8.330;2023-11-21T01:05:23;6.82;;;1.83;;
11524;SDS011;5819;49.648;8.330;2023-11-21T01:07:51;6.22;;;1.83;;
11524;SDS011;5819;49.648;8.330;2023-11-21T01:10:19;4.75;;;1.75;;
11524;SDS011;5819;49.648;8.330;2023-11-21T01:12:47;3.47;;;2.00;;
11524;SDS011;5819;49.648;8.330;2023-11-21T01:15:15;3.20;;;2.13;;
11524;SDS011;5819;49.648;8.330;2023-11-21T01:17:43;5.18;;;2.40;;
11524;SDS011;5819;49.648;8.330;2023-11-21T01:20:11;5.53;;;2.58;;
11524;SDS011;5819;49.648;8.330;2023-11-21T01:22:41;4.82;;;1.80;;
11524;SDS011;5819;49.648;8.330;2023-11-21T01:25:10;5.35;;;2.20;;
11524;SDS011;5819;49.648;8.330;2023-11-21T01:27:37;9.20;;;2.90;;
11524;SDS011;5819;49.648;8.330;2023-11-21T01:30:06;6.43;;;3.30;;
11524;SDS011;5819;49.648;8.330;2023-11-21T01:32:37;8.23;;;2.90;;
11524;SDS011;5819;49.648;8.330;2023-11-21T01:35:06;5.47;;;2.53;;
11524;SDS011;5819;49.648;8.330;2023-11-21T01:37:36;6.50;;;2.83;;
11524;SDS011;5819;49.648;8.330;2023-11-21T01:40:06;6.43;;;2.95;;
11524;SDS011;5819;49.648;8.330;2023-11-21T01:42:40;6.68;;;2.92;;
11524;SDS011;5819;49.648;8.330;2023-11-21T01:45:10;5.75;;;2.60;;
11524;SDS011;5819;49.648;8.330;2023-11-21T01:47:40;7.60;;;2.40;;
11524;SDS011;5819;49.648;8.330;2023-11-21T01:50:09;5.00;;;2.65;;
11524;SDS011;5819;49.648;8.330;2023-11-21T01:52:42;6.20;;;2.50;;
11524;SDS011;5819;49.648;8.330;2023-11-21T01:55:14;7.78;;;2.60;;
11524;SDS011;5819;49.648;8.330;2023-11-21T01:57:54;4.93;;;2.45;;
11524;SDS011;5819;49.648;8.330;2023-11-21T02:00:23;8.77;;;2.65;;
11524;SDS011;5819;49.648;8.330;2023-11-21T02:02:53;6.00;;;2.72;;
11524;SDS011;5819;49.648;8.330;2023-11-21T02:05:21;6.28;;;2.60;;
11524;SDS011;5819;49.648;8.330;2023-11-21T02:07:49;7.10;;;3.05;;
11524;SDS011;5819;49.648;8.330;2023-11-21T02:10:20;7.78;;;2.97;;
11524;SDS011;5819;49.648;8.330;2023-11-21T02:12:51;5.75;;;2.90;;
11524;SDS011;5819;49.648;8.330;2023-11-21T02:15:20;7.72;;;2.08;;
11524;SDS011;5819;49.648;8.330;2023-11-21T02:17:49;6.13;;;2.33;;
11524;SDS011;5819;49.648;8.330;2023-11-21T02:20:19;6.35;;;2.45;;
11524;SDS011;5819;49.648;8.330;2023-11-21T02:22:50;7.40;;;2.92;;
11524;SDS011;5819;49.648;8.330;2023-11-21T02:25:22;5.30;;;2.63;;
11524;SDS011;5819;49.648;8.330;2023-11-21T02:27:50;7.05;;;2.85;;
11524;SDS011;5819;49.648;8.330;2023-11-21T02:30:18;4.43;;;2.83;;
11524;SDS011;5819;49.648;8.330;2023-11-21T02:32:47;4.10;;;2.03;;
11524;SDS011;5819;49.648;8.330;2023-11-21T02:35:15;9.25;;;2.40;;
11524;SDS011;5819;49.648;8.330;2023-11-21T02:37:43;6.93;;;2.75;;
11524;SDS011;5819;49.648;8.330;2023-11-21T02:40:14;7.80;;;2.45;;
11524;SDS011;5819;49.648;8.330;2023-11-21T02:42:44;8.23;;;2.60;;
11524;SDS011;5819;49.648;8.330;2023-11-21T02:45:14;7.13;;;2.45;;
11524;SDS011;5819;49.648;8.330;2023-11-21T02:47:43;5.40;;;2.35;;
11524;SDS011;5819;49.648;8.330;2023-11-21T02:50:12;5.22;;;2.67;;
11524;SDS011;5819;49.648;8.330;2023-11-21T02:52:40;9.25;;;2.83;;
11524;SDS011;5819;49.648;8.330;2023-11-21T02:55:08;7.13;;;2.42;;
11524;SDS011;5819;49.648;8.330;2023-11-21T02:57:38;7.53;;;2.22;;
11524;SDS011;5819;49.648;8.330;2023-11-21T03:00:06;8.55;;;2.97;;
11524;SDS011;5819;49.648;8.330;2023-11-21T03:02:36;8.23;;;2.92;;
11524;SDS011;5819;49.648;8.330;2023-11-21T03:05:06;5.45;;;2.30;;
11524;SDS011;5819;49.648;8.330;2023-11-21T03:07:36;4.72;;;2.80;;
11524;SDS011;5819;49.648;8.330;2023-11-21T03:10:04;4.95;;;2.33;;
11524;SDS011;5819;49.648;8.330;2023-11-21T03:12:35;4.43;;;2.30;;
11524;SDS011;5819;49.648;8.330;2023-11-21T03:15:05;4.88;;;2.83;;
11524;SDS011;5819;49.648;8.330;2023-11-21T03:17:34;6.18;;;2.83;;
11524;SDS011;5819;49.648;8.330;2023-11-21T03:20:03;9.20;;;2.80;;
11524;SDS011;5819;49.648;8.330;2023-11-21T03:22:32;6.25;;;2.60;;
11524;SDS011;5819;49.648;8.330;2023-11-21T03:25:00;4.32;;;2.20;;
11524;SDS011;5819;49.648;8.330;2023-11-21T03:27:29;7.13;;;2.67;;
11524;SDS011;5819;49.648;8.330;2023-11-21T03:29:57;4.90;;;2.70;;
11524;SDS011;5819;49.648;8.330;2023-11-21T03:32:26;10.43;;;2.78;;
11524;SDS011;5819;49.648;8.330;2023-11-21T03:34:55;4.00;;;2.40;;
11524;SDS011;5819;49.648;8.330;2023-11-21T03:37:25;8.00;;;3.00;;
11524;SDS011;5819;49.648;8.330;2023-11-21T03:39:55;6.25;;;2.42;;
11524;SDS011;5819;49.648;8.330;2023-11-21T03:42:23;3.90;;;2.70;;
11524;SDS011;5819;49.648;8.330;2023-11-21T03:44:52;5.00;;;2.95;;
11524;SDS011;5819;49.648;8.330;2023-11-21T03:47:20;7.82;;;2.95;;
11524;SDS011;5819;49.648;8.330;2023-11-21T03:49:50;8.20;;;2.75;;
11524;SDS011;5819;49.648;8.330;2023-11-21T03:52:19;6.63;;;2.90;;
11524;SDS011;5819;49.648;8.330;2023-11-21T03:54:46;8.00;;;2.85;;
11524;SDS011;5819;49.648;8.330;2023-11-21T03:57:14;6.22;;;2.90;;
11524;SDS011;5819;49.648;8.330;2023-11-21T03:59:42;5.60;;;2.70;;
11524;SDS011;5819;49.648;8.330;2023-11-21T04:02:10;4.78;;;2.58;;
11524;SDS011;5819;49.648;8.330;2023-11-21T04:04:38;7.28;;;3.55;;
11524;SDS011;5819;49.648;8.330;2023-11-21T04:07:08;7.63;;;3.13;;
11524;SDS011;5819;49.648;8.330;2023-11-21T04:09:37;7.55;;;3.20;;
11524;SDS011;5819;49.648;8.330;2023-11-21T04:12:05;8.05;;;3.25;;
11524;SDS011;5819;49.648;8.330;2023-11-21T04:14:33;7.47;;;3.10;;
11524;SDS011;5819;49.648;8.330;2023-11-21T04:17:01;6.38;;;3.03;;
11524;SDS011;5819;49.648;8.330;2023-11-21T04:19:30;4.35;;;2.95;;
11524;SDS011;5819;49.648;8.330;2023-11-21T04:21:58;6.05;;;2.88;;
11524;SDS011;5819;49.648;8.330;2023-11-21T04:24:27;7.90;;;3.00;;
11524;SDS011;5819;49.648;8.330;2023-11-21T04:26:55;5.32;;;2.92;;
11524;SDS011;5819;49.648;8.330;2023-11-21T04:29:23;5.15;;;3.03;;
11524;SDS011;5819;49.648;8.330;2023-11-21T04:31:51;7.50;;;3.40;;
11524;SDS011;5819;49.648;8.330;2023-11-21T04:34:19;4.63;;;3.22;;
11524;SDS011;5819;49.648;8.330;2023-11-21T04:36:47;5.63;;;3.47;;
11524;SDS011;5819;49.648;8.330;2023-11-21T04:39:14;7.72;;;3.58;;
11524;SDS011;5819;49.648;8.330;2023-11-21T04:41:43;5.18;;;3.22;;
11524;SDS011;5819;49.648;8.330;2023-11-21T04:44:11;4.55;;;3.03;;
11524;SDS011;5819;49.648;8.330;2023-11-21T04:46:39;5.93;;;3.22;;
11524;SDS011;5819;49.648;8.330;2023-11-21T04:49:07;6.10;;;4.05;;
11524;SDS011;5819;49.648;8.330;2023-11-21T04:51:35;8.68;;;3.90;;
11524;SDS011;5819;49.648;8.330;2023-11-21T04:54:04;4.93;;;3.60;;
11524;SDS011;5819;49.648;8.330;2023-11-21T04:56:33;5.32;;;3.63;;
11524;SDS011;5819;49.648;8.330;2023-11-21T04:59:02;7.68;;;3.92;;
11524;SDS011;5819;49.648;8.330;2023-11-21T05:01:31;5.70;;;3.72;;
11524;SDS011;5819;49.648;8.330;2023-11-21T05:03:59;5.40;;;3.72;;
11524;SDS011;5819;49.648;8.330;2023-11-21T05:06:27;6.20;;;4.30;;
11524;SDS011;5819;49.648;8.330;2023-11-21T05:08:55;9.70;;;4.82;;
11524;SDS011;5819;49.648;8.330;2023-11-21T05:11:24;7.70;;;5.18;;
11524;SDS011;5819;49.648;8.330;2023-11-21T05:13:52;5.07;;;4.60;;
11524;SDS011;5819;49.648;8.330;2023-11-21T05:16:24;6.55;;;5.40;;
11524;SDS011;5819;49.648;8.330;2023-11-21T05:18:53;15.52;;;5.55;;
11524;SDS011;5819;49.648;8.330;2023-11-21T05:21:26;7.43;;;5.88;;
11524;SDS011;5819;49.648;8.330;2023-11-21T05:23:55;6.50;;;5.80;;
11524;SDS011;5819;49.648;8.330;2023-11-21T05:26:23;8.35;;;5.88;;
11524;SDS011;5819;49.648;8.330;2023-11-21T05:28:51;7.60;;;6.10;;
11524;SDS011;5819;49.648;8.330;2023-11-21T05:31:19;8.75;;;6.20;;
11524;SDS011;5819;49.648;8.330;2023-11-21T05:33:49;10.98;;;7.13;;
11524;SDS011;5819;49.648;8.330;2023-11-21T05:36:17;8.02;;;6.78;;
11524;SDS011;5819;49.648;8.330;2023-11-21T05:38:44;8.57;;;7.43;;
11524;SDS011;5819;49.648;8.330;2023-11-21T05:41:13;10.88;;;8.55;;
11524;SDS011;5819;49.648;8.330;2023-11-21T05:43:41;15.32;;;7.72;;
11524;SDS011;5819;49.648;8.330;2023-11-21T05:46:09;13.00;;;8.27;;
11524;SDS011;5819;49.648;8.330;2023-11-21T05:48:37;10.68;;;8.43;;
11524;SDS011;5819;49.648;8.330;2023-11-21T05:51:06;11.50;;;8.38;;
11524;SDS011;5819;49.648;8.330;2023-11-21T05:53:34;10.20;;;8.77;;
11524;SDS011;5819;49.648;8.330;2023-11-21T05:56:02;11.05;;;9.18;;
11524;SDS011;5819;49.648;8.330;2023-11-21T05:58:31;9.20;;;8.05;;
11524;SDS011;5819;49.648;8.330;2023-11-21T06:00:59;12.13;;;9.18;;
11524;SDS011;5819;49.648;8.330;2023-11-21T06:03:26;12.88;;;10.02;;
11524;SDS011;5819;49.648;8.330;2023-11-21T06:05:54;11.63;;;9.13;;
11524;SDS011;5819;49.648;8.330;2023-11-21T06:08:24;12.35;;;10.07;;
11524;SDS011;5819;49.648;8.330;2023-11-21T06:10:51;12.55;;;10.57;;
11524;SDS011;5819;49.648;8.330;2023-11-21T06:13:19;11.60;;;9.93;;
11524;SDS011;5819;49.648;8.330;2023-11-21T06:15:50;14.00;;;9.98;;
11524;SDS011;5819;49.648;8.330;2023-11-21T06:18:18;13.15;;;11.00;;
11524;SDS011;5819;49.648;8.330;2023-11-21T06:20:46;12.88;;;10.02;;
11524;SDS011;5819;49.648;8.330;2023-11-21T06:23:14;13.02;;;10.20;;
11524;SDS011;5819;49.648;8.330;2023-11-21T06:25:44;12.13;;;10.35;;
11524;SDS011;5819;49.648;8.330;2023-11-21T06:28:12;14.73;;;10.40;;
11524;SDS011;5819;49.648;8.330;2023-11-21T06:30:43;13.20;;;9.88;;
11524;SDS011;5819;49.648;8.330;2023-11-21T06:33:12;11.77;;;9.98;;
11524;SDS011;5819;49.648;8.330;2023-11-21T06:35:40;13.20;;;11.20;;
11524;SDS011;5819;49.648;8.330;2023-11-21T06:38:08;12.27;;;9.80;;
11524;SDS011;5819;49.648;8.330;2023-11-21T06:40:36;11.20;;;9.73;;
11524;SDS011;5819;49.648;8.330;2023-11-21T06:43:06;13.00;;;10.73;;
11524;SDS011;5819;49.648;8.330;2023-11-21T06:45:34;12.90;;;9.98;;
11524;SDS011;5819;49.648;8.330;2023-11-21T06:48:02;13.15;;;10.30;;
11524;SDS011;5819;49.648;8.330;2023-11-21T06:50:30;10.80;;;9.38;;
11524;SDS011;5819;49.648;8.330;2023-11-21T06:52:58;12.32;;;9.50;;
11524;SDS011;5819;49.648;8.330;2023-11-21T06:55:26;12.68;;;9.20;;
11524;SDS011;5819;49.648;8.330;2023-11-21T06:57:54;13.23;;;9.40;;
11524;SDS011;5819;49.648;8.330;2023-11-21T07:00:23;12.07;;;9.10;;
11524;SDS011;5819;49.648;8.330;2023-11-21T07:02:51;10.32;;;8.48;;
11524;SDS011;5819;49.648;8.330;2023-11-21T07:05:19;12.15;;;10.20;;
11524;SDS011;5819;49.648;8.330;2023-11-21T07:07:49;11.93;;;8.43;;
11524;SDS011;5819;49.648;8.330;2023-11-21T07:10:20;9.68;;;8.52;;
11524;SDS011;5819;49.648;8.330;2023-11-21T07:12:49;12.10;;;9.68;;
11524;SDS011;5819;49.648;8.330;2023-11-21T07:15:17;12.13;;;8.90;;
11524;SDS011;5819;49.648;8.330;2023-11-21T07:17:47;10.70;;;8.95;;
11524;SDS011;5819;49.648;8.330;2023-11-21T07:20:16;11.18;;;9.48;;
11524;SDS011;5819;49.648;8.330;2023-11-21T07:22:48;16.38;;;10.80;;
11524;SDS011;5819;49.648;8.330;2023-11-21T07:25:21;13.25;;;10.63;;
11524;SDS011;5819;49.648;8.330;2023-11-21T07:27:49;16.40;;;12.13;;
11524;SDS011;5819;49.648;8.330;2023-11-21T07:30:17;12.98;;;11.02;;
11524;SDS011;5819;49.648;8.330;2023-11-21T07:32:45;16.38;;;11.73;;
11524;SDS011;5819;49.648;8.330;2023-11-21T07:35:16;14.93;;;10.98;;
11524;SDS011;5819;49.648;8.330;2023-11-21T07:37:44;15.40;;;10.93;;
11524;SDS011;5819;49.648;8.330;2023-11-21T07:40:14;14.20;;;11.55;;
11524;SDS011;5819;49.648;8.330;2023-11-21T07:42:43;13.68;;;11.10;;
11524;SDS011;5819;49.648;8.330;2023-11-21T07:45:11;15.52;;;11.70;;
11524;SDS011;5819;49.648;8.330;2023-11-21T07:47:39;16.30;;;12.52;;
11524;SDS011;5819;49.648;8.330;2023-11-21T07:50:07;17.30;;;11.63;;
11524;SDS011;5819;49.648;8.330;2023-11-21T07:52:38;14.05;;;11.43;;
11524;SDS011;5819;49.648;8.330;2023-11-21T07:55:07;16.48;;;12.20;;
11524;SDS011;5819;49.648;8.330;2023-11-21T07:57:35;16.20;;;11.80;;
11524;SDS011;5819;49.648;8.330;2023-11-21T08:00:05;15.27;;;11.45;;
11524;SDS011;5819;49.648;8.330;2023-11-21T08:02:39;15.00;;;11.43;;
11524;SDS011;5819;49.648;8.330;2023-11-21T08:05:09;16.42;;;11.45;;
11524;SDS011;5819;49.648;8.330;2023-11-21T08:07:51;14.82;;;10.88;;
11524;SDS011;5819;49.648;8.330;2023-11-21T08:10:19;13.02;;;10.68;;
11524;SDS011;5819;49.648;8.330;2023-11-21T08:12:48;13.55;;;10.80;;
11524;SDS011;5819;49.648;8.330;2023-11-21T08:15:16;14.80;;;11.32;;
11524;SDS011;5819;49.648;8.330;2023-11-21T08:17:46;14.35;;;11.48;;
11524;SDS011;5819;49.648;8.330;2023-11-21T08:20:15;19.05;;;13.55;;
11524;SDS011;5819;49.648;8.330;2023-11-21T08:22:45;18.35;;;13.60;;
11524;SDS011;5819;49.648;8.330;2023-11-21T08:25:15;14.30;;;11.52;;
11524;SDS011;5819;49.648;8.330;2023-11-21T08:27:47;12.93;;;10.57;;
11524;SDS011;5819;49.648;8.330;2023-11-21T08:30:15;13.93;;;11.27;;
11524;SDS011;5819;49.648;8.330;2023-11-21T08:32:47;15.63;;;11.88;;
11524;SDS011;5819;49.648;8.330;2023-11-21T08:35:16;15.10;;;11.65;;
11524;SDS011;5819;49.648;8.330;2023-11-21T08:37:45;13.90;;;11.57;;
11524;SDS011;5819;49.648;8.330;2023-11-21T08:40:13;18.42;;;15.07;;
11524;SDS011;5819;49.648;8.330;2023-11-21T08:42:44;19.65;;;14.70;;
11524;SDS011;5819;49.648;8.330;2023-11-21T08:45:13;17.52;;;11.52;;
11524;SDS011;5819;49.648;8.330;2023-11-21T08:47:41;13.45;;;10.15;;
11524;SDS011;5819;49.648;8.330;2023-11-21T08:50:10;10.95;;;9.70;;
11524;SDS011;5819;49.648;8.330;2023-11-21T08:52:39;15.80;;;9.93;;
11524;SDS011;5819;49.648;8.330;2023-11-21T08:55:07;12.90;;;9.55;;
11524;SDS011;5819;49.648;8.330;2023-11-21T08:57:37;11.45;;;9.50;;
11524;SDS011;5819;49.648;8.330;2023-11-21T09:00:06;12.90;;;9.95;;
11524;SDS011;5819;49.648;8.330;2023-11-21T09:02:37;13.32;;;10.77;;
11524;SDS011;5819;49.648;8.330;2023-11-21T09:05:05;13.18;;;9.90;;
11524;SDS011;5819;49.648;8.330;2023-11-21T09:07:35;14.52;;;9.80;;
11524;SDS011;5819;49.648;8.330;2023-11-21T09:10:03;12.57;;;9.90;;
11524;SDS011;5819;49.648;8.330;2023-11-21T09:12:33;13.23;;;10.23;;
11524;SDS011;5819;49.648;8.330;2023-11-21T09:15:03;11.45;;;8.98;;
11524;SDS011;5819;49.648;8.330;2023-11-21T09:17:32;11.13;;;8.95;;
11524;SDS011;5819;49.648;8.330;2023-11-21T09:20:01;12.32;;;8.93;;
11524;SDS011;5819;49.648;8.330;2023-11-21T09:22:32;13.15;;;8.80;;
11524;SDS011;5819;49.648;8.330;2023-11-21T09:25:00;9.77;;;8.30;;
11524;SDS011;5819;49.648;8.330;2023-11-21T09:27:27;12.15;;;8.00;;
11524;SDS011;5819;49.648;8.330;2023-11-21T09:29:56;7.72;;;6.95;;
11524;SDS011;5819;49.648;8.330;2023-11-21T09:32:26;8.32;;;6.43;;
11524;SDS011;5819;49.648;8.330;2023-11-21T09:34:54;8.27;;;6.63;;
11524;SDS011;5819;49.648;8.330;2023-11-21T09:37:24;8.57;;;6.30;;
11524;SDS011;5819;49.648;8.330;2023-11-21T09:39:53;7.82;;;6.28;;
11524;SDS011;5819;49.648;8.330;2023-11-21T09:42:22;9.98;;;6.75;;
11524;SDS011;5819;49.648;8.330;2023-11-21T09:44:54;8.02;;;5.93;;
11524;SDS011;5819;49.648;8.330;2023-11-21T09:47:31;9.07;;;6.10;;
11524;SDS011;5819;49.648;8.330;2023-11-21T09:50:03;9.27;;;5.78;;
11524;SDS011;5819;49.648;8.330;2023-11-21T09:52:37;6.55;;;5.70;;
11524;SDS011;5819;49.648;8.330;2023-11-21T09:55:15;10.90;;;5.70;;
11524;SDS011;5819;49.648;8.330;2023-11-21T09:57:47;8.77;;;6.07;;
11524;SDS011;5819;49.648;8.330;2023-11-21T10:00:16;8.90;;;6.00;;
11524;SDS011;5819;49.648;8.330;2023-11-21T10:02:51;7.93;;;5.60;;
11524;SDS011;5819;49.648;8.330;2023-11-21T10:05:19;8.27;;;6.40;;
11524;SDS011;5819;49.648;8.330;2023-11-21T10:07:52;11.75;;;6.80;;
11524;SDS011;5819;49.648;8.330;2023-11-21T10:10:23;12.20;;;8.15;;
11524;SDS011;5819;49.648;8.330;2023-11-21T10:12:54;13.98;;;7.10;;
11524;SDS011;5819;49.648;8.330;2023-11-21T10:15:24;12.98;;;7.70;;
11524;SDS011;5819;49.648;8.330;2023-11-21T10:17:54;10.40;;;7.18;;
11524;SDS011;5819;49.648;8.330;2023-11-21T10:20:23;12.20;;;7.40;;
11524;SDS011;5819;49.648;8.330;2023-11-21T10:22:52;7.60;;;6.45;;
11524;SDS011;5819;49.648;8.330;2023-11-21T10:25:19;9.65;;;7.20;;
11524;SDS011;5819;49.648;8.330;2023-11-21T10:27:47;7.97;;;7.05;;
11524;SDS011;5819;49.648;8.330;2023-11-21T10:30:18;11.45;;;9.88;;
11524;SDS011;5819;49.648;8.330;2023-11-21T10:32:46;9.52;;;6.93;;
11524;SDS011;5819;49.648;8.330;2023-11-21T10:35:16;12.80;;;8.20;;
11524;SDS011;5819;49.648;8.330;2023-11-21T10:37:44;10.95;;;6.13;;
11524;SDS011;5819;49.648;8.330;2023-11-21T10:40:11;9.88;;;6.28;;
11524;SDS011;5819;49.648;8.330;2023-11-21T10:42:39;9.40;;;6.95;;
11524;SDS011;5819;49.648;8.330;2023-11-21T10:45:08;10.15;;;6.35;;
11524;SDS011;5819;49.648;8.330;2023-11-21T10:47:40;7.70;;;6.07;;
11524;SDS011;5819;49.648;8.330;2023-11-21T10:50:08;9.43;;;5.20;;
11524;SDS011;5819;49.648;8.330;2023-11-21T10:52:40;7.93;;;5.30;;
11524;SDS011;5819;49.648;8.330;2023-11-21T10:55:16;7.95;;;5.72;;
11524;SDS011;5819;49.648;8.330;2023-11-21T10:57:46;9.20;;;4.85;;
11524;SDS011;5819;49.648;8.330;2023-11-21T11:00:16;9.50;;;5.22;;
11524;SDS011;5819;49.648;8.330;2023-11-21T11:02:47;7.32;;;5.03;;
11524;SDS011;5819;49.648;8.330;2023-11-21T11:05:19;6.10;;;4.82;;
11524;SDS011;5819;49.648;8.330;2023-11-21T11:07:50;13.23;;;5.30;;
11524;SDS011;5819;49.648;8.330;2023-11-21T11:10:20;8.07;;;4.60;;
11524;SDS011;5819;49.648;8.330;2023-11-21T11:12:49;7.82;;;4.25;;
11524;SDS011;5819;49.648;8.330;2023-11-21T11:15:19;8.57;;;3.95;;
11524;SDS011;5819;49.648;8.330;2023-11-21T11:17:47;7.30;;;3.90;;
11524;SDS011;5819;49.648;8.330;2023-11-21T11:20:16;7.65;;;4.47;;
11524;SDS011;5819;49.648;8.330;2023-11-21T11:22:50;7.45;;;4.50;;
11524;SDS011;5819;49.648;8.330;2023-11-21T11:25:35;6.07;;;4.45;;
11524;SDS011;5819;49.648;8.330;2023-11-21T11:28:15;9.05;;;3.90;;
11524;SDS011;5819;49.648;8.330;2023-11-21T11:30:50;9.60;;;3.55;;
11524;SDS011;5819;49.648;8.330;2023-11-21T11:33:31;5.30;;;4.18;;
11524;SDS011;5819;49.648;8.330;2023-11-21T11:36:09;6.82;;;4.22;;
11524;SDS011;5819;49.648;8.330;2023-11-21T11:38:46;6.10;;;4.35;;
11524;SDS011;5819;49.648;8.330;2023-11-21T11:41:24;7.60;;;4.13;;
11524;SDS011;5819;49.648;8.330;2023-11-21T11:43:54;6.22;;;4.18;;
11524;SDS011;5819;49.648;8.330;2023-11-21T11:46:39;4.82;;;3.72;;
11524;SDS011;5819;49.648;8.330;2023-11-21T11:49:09;6.28;;;3.72;;
11524;SDS011;5819;49.648;8.330;2023-11-21T11:51:37;4.75;;;3.28;;
11524;SDS011;5819;49.648;8.330;2023-11-21T11:54:07;4.45;;;3.50;;
11524;SDS011;5819;49.648;8.330;2023-11-21T11:56:35;7.13;;;3.83;;
11524;SDS011;5819;49.648;8.330;2023-11-21T11:59:04;4.85;;;3.70;;
11524;SDS011;5819;49.648;8.330;2023-11-21T12:01:35;10.45;;;3.65;;
11524;SDS011;5819;49.648;8.330;2023-11-21T12:04:23;7.68;;;4.05;;
11524;SDS011;5819;49.648;8.330;2023-11-21T12:06:59;8.18;;;3.97;;
11524;SDS011;5819;49.648;8.330;2023-11-21T12:09:31;6.47;;;4.10;;
11524;SDS011;5819;49.648;8.330;2023-11-21T12:12:00;5.25;;;3.40;;
11524;SDS011;5819;49.648;8.330;2023-11-21T12:14:30;5.50;;;2.75;;
11524;SDS011;5819;49.648;8.330;2023-11-21T12:16:58;6.38;;;2.97;;
11524;SDS011;5819;49.648;8.330;2023-11-21T12:19:26;7.30;;;3.28;;
11524;SDS011;5819;49.648;8.330;2023-11-21T12:21:54;6.90;;;3.40;;
11524;SDS011;5819;49.648;8.330;2023-11-21T12:24:23;7.03;;;3.40;;
11524;SDS011;5819;49.648;8.330;2023-11-21T12:26:52;6.47;;;3.75;;
11524;SDS011;5819;49.648;8.330;2023-11-21T12:29:20;7.65;;;4.30;;
11524;SDS011;5819;49.648;8.330;2023-11-21T12:31:48;7.95;;;3.70;;
11524;SDS011;5819;49.648;8.330;2023-11-21T12:34:17;7.45;;;3.35;;
11524;SDS011;5819;49.648;8.330;2023-11-21T12:36:45;7.35;;;3.28;;
11524;SDS011;5819;49.648;8.330;2023-11-21T12:39:13;6.57;;;3.17;;
11524;SDS011;5819;49.648;8.330;2023-11-21T12:41:41;6.53;;;3.25;;
11524;SDS011;5819;49.648;8.330;2023-11-21T12:44:11;6.60;;;3.25;;
11524;SDS011;5819;49.648;8.330;2023-11-21T12:46:42;6.57;;;3.45;;
11524;SDS011;5819;49.648;8.330;2023-11-21T12:49:11;8.90;;;4.15;;
11524;SDS011;5819;49.648;8.330;2023-11-21T12:51:45;6.10;;;3.63;;
11524;SDS011;5819;49.648;8.330;2023-11-21T12:54:13;7.93;;;4.50;;
11524;SDS011;5819;49.648;8.330;2023-11-21T12:56:44;6.53;;;4.20;;
11524;SDS011;5819;49.648;8.330;2023-11-21T12:59:15;11.30;;;4.10;;
11524;SDS011;5819;49.648;8.330;2023-11-21T13:01:44;11.32;;;4.40;;
11524;SDS011;5819;49.648;8.330;2023-11-21T13:04:12;7.95;;;3.90;;
11524;SDS011;5819;49.648;8.330;2023-11-21T13:06:40;7.68;;;4.13;;
11524;SDS011;5819;49.648;8.330;2023-11-21T13:09:08;10.77;;;4.43;;
11524;SDS011;5819;49.648;8.330;2023-11-21T13:11:37;7.30;;;4.30;;
11524;SDS011;5819;49.648;8.330;2023-11-21T13:14:07;10.10;;;4.13;;
11524;SDS011;5819;49.648;8.330;2023-11-21T13:16:39;7.72;;;4.10;;
11524;SDS011;5819;49.648;8.330;2023-11-21T13:19:12;7.35;;;4.75;;
11524;SDS011;5819;49.648;8.330;2023-11-21T13:21:40;11.82;;;5.57;;
11524;SDS011;5819;49.648;8.330;2023-11-21T13:24:08;7.65;;;4.97;;
11524;SDS011;5819;49.648;8.330;2023-11-21T13:26:36;13.27;;;4.68;;
11524;SDS011;5819;49.648;8.330;2023-11-21T13:29:05;12.10;;;4.50;;
11524;SDS011;5819;49.648;8.330;2023-11-21T13:31:33;7.70;;;4.47;;
11524;SDS011;5819;49.648;8.330;2023-11-21T13:34:05;9.93;;;4.15;;
11524;SDS011;5819;49.648;8.330;2023-11-21T13:36:35;6.13;;;4.20;;
11524;SDS011;5819;49.648;8.330;2023-11-21T13:39:03;10.48;;;4.35;;
11524;SDS011;5819;49.648;8.330;2023-11-21T13:41:35;9.40;;;4.25;;
11524;SDS011;5819;49.648;8.330;2023-11-21T13:44:05;7.05;;;3.75;;
11524;SDS011;5819;49.648;8.330;2023-11-21T13:46:43;7.50;;;3.97;;
11524;SDS011;5819;49.648;8.330;2023-11-21T13:49:14;5.85;;;3.67;;
11524;SDS011;5819;49.648;8.330;2023-11-21T13:51:42;6.47;;;3.50;;
11524;SDS011;5819;49.648;8.330;2023-11-21T13:54:12;8.43;;;3.53;;
11524;SDS011;5819;49.648;8.330;2023-11-21T13:56:41;4.97;;;3.30;;
11524;SDS011;5819;49.648;8.330;2023-11-21T13:59:11;5.95;;;3.45;;
11524;SDS011;5819;49.648;8.330;2023-11-21T14:01:47;9.20;;;3.60;;
11524;SDS011;5819;49.648;8.330;2023-11-21T14:04:25;8.30;;;4.05;;
11524;SDS011;5819;49.648;8.330;2023-11-21T14:07:13;5.68;;;3.50;;
11524;SDS011;5819;49.648;8.330;2023-11-21T14:09:52;7.53;;;4.03;;
11524;SDS011;5819;49.648;8.330;2023-11-21T14:12:21;7.30;;;3.22;;
11524;SDS011;5819;49.648;8.330;2023-11-21T14:15:24;6.88;;;3.70;;
11524;SDS011;5819;49.648;8.330;2023-11-21T14:17:53;9.38;;;3.78;;
11524;SDS011;5819;49.648;8.330;2023-11-21T14:20:23;4.55;;;3.17;;
11524;SDS011;5819;49.648;8.330;2023-11-21T14:22:51;8.38;;;4.18;;
11524;SDS011;5819;49.648;8.330;2023-11-21T14:25:19;8.82;;;3.53;;
11524;SDS011;5819;49.648;8.330;2023-11-21T14:27:48;7.53;;;3.42;;
11524;SDS011;5819;49.648;8.330;2023-11-21T14:30:17;6.07;;;3.38;;
11524;SDS011;5819;49.648;8.330;2023-11-21T14:32:47;6.72;;;3.42;;
11524;SDS011;5819;49.648;8.330;2023-11-21T14:35:15;5.38;;;3.50;;
11524;SDS011;5819;49.648;8.330;2023-11-21T14:37:45;7.43;;;4.60;;
11524;SDS011;5819;49.648;8.330;2023-11-21T14:40:13;5.97;;;4.10;;
11524;SDS011;5819;49.648;8.330;2023-11-21T14:42:42;7.70;;;4.80;;
11524;SDS011;5819;49.648;8.330;2023-11-21T14:45:13;5.75;;;3.58;;
11524;SDS011;5819;49.648;8.330;2023-11-21T14:47:46;5.38;;;3.83;;
11524;SDS011;5819;49.648;8.330;2023-11-21T14:50:22;6.15;;;4.00;;
11524;SDS011;5819;49.648;8.330;2023-11-21T14:53:09;6.68;;;4.28;;
11524;SDS011;5819;49.648;8.330;2023-11-21T14:55:39;7.30;;;5.13;;
11524;SDS011;5819;49.648;8.330;2023-11-21T14:58:20;9.00;;;5.60;;
11524;SDS011;5819;49.648;8.330;2023-11-21T15:00:54;7.10;;;5.55;;
11524;SDS011;5819;49.648;8.330;2023-11-21T15:03:25;11.25;;;6.07;;
11524;SDS011;5819;49.648;8.330;2023-11-21T15:06:16;7.90;;;5.30;;
11524;SDS011;5819;49.648;8.330;2023-11-21T15:08:51;8.73;;;6.22;;
11524;SDS011;5819;49.648;8.330;2023-11-21T15:11:25;8.82;;;6.10;;